createdAt,value
2023-02-04T00:06:46.296Z,3.9
2023-02-04T00:21:56.462Z,5.2
2023-02-04T00:37:06.116Z,4.6
2023-02-04T00:52:15.489Z,4.9
2023-02-04T01:07:25.502Z,3.6
2023-02-04T01:22:35.616Z,3.3
2023-02-04T01:37:44.943Z,3.2
2023-02-04T01:52:55.759Z,2.6
2023-02-04T02:08:05.706Z,1.5
2023-02-04T02:23:15.700Z,1.4
2023-02-04T02:38:25.387Z,1.6
2023-02-04T02:53:34.961Z,1.8
2023-02-04T03:08:44.808Z,2.3
2023-02-04T03:23:58.218Z,1.8
2023-02-04T03:39:08.365Z,1.7
2023-02-04T03:54:17.995Z,1.5
2023-02-04T04:09:27.693Z,1.9
2023-02-04T04:24:37.334Z,1.8
2023-02-04T04:39:46.879Z,1.9
2023-02-04T04:54:57.723Z,1.9
2023-02-04T05:10:07.915Z,1.7
2023-02-04T05:25:17.165Z,2.3
2023-02-04T05:40:26.805Z,1.9
2023-02-04T05:55:36.642Z,2.5
2023-02-04T06:10:46.538Z,2.1
2023-02-04T06:25:57.339Z,2.2
2023-02-04T06:41:06.798Z,2.2
2023-02-04T06:56:16.206Z,2.6
2023-02-04T07:11:25.909Z,2.3
2023-02-04T07:26:35.344Z,2.9
2023-02-04T07:41:44.757Z,3.7
2023-02-04T07:56:58.503Z,3.7
2023-02-04T08:12:07.726Z,4.1
2023-02-04T08:27:17.286Z,4.4
2023-02-04T08:42:27.112Z,10.8
2023-02-04T08:57:37.125Z,3.5
2023-02-04T09:12:47.830Z,4
2023-02-04T09:27:58.186Z,4.1
2023-02-04T09:43:07.488Z,3
2023-02-04T09:58:17.443Z,2.9
2023-02-04T10:13:27.177Z,2.6
2023-02-04T10:28:37.454Z,3.4
2023-02-04T10:43:46.836Z,2.5
2023-02-04T10:58:57.970Z,3.2
2023-02-04T11:14:08.039Z,2.5
2023-02-04T11:29:18.127Z,2.4
2023-02-04T11:44:28.017Z,2.5
2023-02-04T11:59:38.634Z,3.1
2023-02-04T12:14:48.958Z,4.1
2023-02-04T12:29:58.513Z,3
2023-02-04T12:45:07.282Z,2.8
2023-02-04T13:00:17.207Z,2.6
2023-02-04T13:15:27.805Z,3
2023-02-04T13:30:37.492Z,2.4
2023-02-04T13:45:51.034Z,2.1
2023-02-04T14:01:01.393Z,2.8
2023-02-04T14:16:10.411Z,2.8
2023-02-04T14:31:19.754Z,1.8
2023-02-04T14:46:29.145Z,2.2
2023-02-04T15:01:39.410Z,3.3
2023-02-04T15:16:49.708Z,5.8
2023-02-04T15:32:00.073Z,3.5
2023-02-04T15:47:09.750Z,3.7
2023-02-04T16:02:19.906Z,3.4
2023-02-04T16:17:29.528Z,3.9
2023-02-04T16:32:38.586Z,9.6
2023-02-04T16:47:47.993Z,6.2
2023-02-04T17:02:58.347Z,4.5
2023-02-04T17:18:08.229Z,4.5
2023-02-04T17:35:16.744Z,5.7
2023-02-04T17:50:28.435Z,5.6
2023-02-04T18:05:38.886Z,5.2
2023-02-04T18:20:48.425Z,10.1
2023-02-04T18:35:57.865Z,6.8
2023-02-04T18:51:07.148Z,6
2023-02-04T19:06:17.004Z,6.1
2023-02-04T19:21:25.563Z,6.2
2023-02-04T19:36:35.434Z,14.9
2023-02-04T19:51:44.827Z,5.9
2023-02-04T20:10:25.248Z,6.9
2023-02-04T20:25:37.327Z,6.3
2023-02-04T20:40:46.469Z,4.8
2023-02-04T20:55:57.083Z,5.3
2023-02-04T21:11:06.811Z,5.9
2023-02-04T21:26:16.268Z,7.8
2023-02-04T21:41:26.471Z,9.6
2023-02-04T21:56:35.904Z,6.4
2023-02-04T22:11:44.998Z,8.2
2023-02-04T22:26:54.320Z,7.1
2023-02-04T22:42:03.570Z,7.7
2023-02-04T22:57:12.888Z,8.5
2023-02-04T23:12:22.388Z,6.3
2023-02-04T23:27:31.537Z,6.9
2023-02-04T23:42:40.425Z,7
2023-02-04T23:57:49.868Z,7.8
